FOON/MVB METAR and TAF weather

Enter ICAO airport designator
Station Type Date Time Source
FOON METAR 2021/09/27 06:00 UTC NOAA

FOON 270600Z 22002KT 800 FG SCT001 OVC023 22/22 Q1014


Station Type Date Time Source
FOON Decoded METAR 2021/09/27 06:00 UTC NOAA

Franceville / Mvengue, Gabon (FOON) 01-39S 013-26E
Sep 27, 2021 - 02:00 AM EDT / 2021.09.27 0600 UTC
Wind: from the SW (220 degrees) at 2 MPH (2 KT):0
Sky conditions: overcast
Weather: fog
Temperature: 71 F (22 C)
Dew Point: 71 F (22 C)
Relative Humidity: 100%
Pressure (altimeter): 29.94 in. Hg (1014 hPa)
ob: FOON 270600Z 22002KT 800 FG SCT001 OVC023 22/22 Q1014
cycle: 6

Station Type Date Time Source
FOON TAF 2012/02/17 18:21 UTC NOAA

TAF TAF FOON 151600Z 1518/1618 20004KT 9999 BKN006
TEMPO 1603/1607 0200 FG OVC002
BECMG 1612/1614 TS SCT015 FEW020CB BKN030

Example: see airport list